createdAt,value
2024-03-14T00:00:19.092Z,9.55
2024-03-14T00:02:50.129Z,6.85
2024-03-14T00:05:21.602Z,8.52
2024-03-14T00:07:54.459Z,5.50
2024-03-14T00:10:25.935Z,9.07
2024-03-14T00:12:57.014Z,10.35
2024-03-14T00:15:30.288Z,7.00
2024-03-14T00:18:02.355Z,9.45
2024-03-14T00:20:33.197Z,6.97
2024-03-14T00:23:04.854Z,6.18
2024-03-14T00:25:35.400Z,5.75
2024-03-14T00:28:05.910Z,7.32
2024-03-14T00:30:39.540Z,7.07
2024-03-14T00:33:10.112Z,9.35
2024-03-14T00:35:40.771Z,6.88
2024-03-14T00:38:11.330Z,6.50
2024-03-14T00:40:42.051Z,5.70
2024-03-14T00:43:15.777Z,9.52
2024-03-14T00:45:48.896Z,9.23
2024-03-14T00:48:19.709Z,6.20
2024-03-14T00:50:51.021Z,8.10
2024-03-14T00:53:21.701Z,7.10
2024-03-14T00:55:52.132Z,7.90
2024-03-14T00:58:22.927Z,5.38
2024-03-14T01:00:56.244Z,10.07
2024-03-14T01:03:27.516Z,7.22
2024-03-14T01:05:59.562Z,5.90
2024-03-14T01:08:31.572Z,5.55
2024-03-14T01:11:02.137Z,6.70
2024-03-14T01:13:32.630Z,5.82
2024-03-14T01:16:05.817Z,8.30
2024-03-14T01:18:36.358Z,6.18
2024-03-14T01:21:09.786Z,5.53
2024-03-14T01:23:40.993Z,10.50
2024-03-14T01:26:13.490Z,6.28
2024-03-14T01:28:43.963Z,7.13
2024-03-14T01:31:17.891Z,4.95
2024-03-14T01:33:49.427Z,6.30
2024-03-14T01:36:21.797Z,6.38
2024-03-14T01:38:52.813Z,6.65
2024-03-14T01:41:23.900Z,6.03
2024-03-14T01:44:01.185Z,7.50
2024-03-14T01:46:35.008Z,5.63
2024-03-14T01:49:07.547Z,8.18
2024-03-14T01:51:38.010Z,6.25
2024-03-14T01:54:08.582Z,5.30
2024-03-14T01:56:49.250Z,7.95
2024-03-14T01:59:19.865Z,8.32
2024-03-14T02:01:52.941Z,5.72
2024-03-14T02:04:28.613Z,5.70
2024-03-14T02:07:08.136Z,5.05
2024-03-14T02:09:39.216Z,4.68
2024-03-14T02:12:10.386Z,6.75
2024-03-14T02:14:40.828Z,4.20
2024-03-14T02:17:14.673Z,5.95
2024-03-14T02:19:45.123Z,8.43
2024-03-14T02:22:24.890Z,3.88
2024-03-14T02:24:55.460Z,5.55
2024-03-14T02:27:27.202Z,7.72
2024-03-14T02:29:57.762Z,5.47
2024-03-14T02:32:28.273Z,6.45
2024-03-14T02:34:58.792Z,5.18
2024-03-14T02:37:31.983Z,4.38
2024-03-14T02:40:02.533Z,5.68
2024-03-14T02:42:33.421Z,6.03
2024-03-14T02:45:05.275Z,4.38
2024-03-14T02:47:37.044Z,7.00
2024-03-14T02:50:10.892Z,4.03
2024-03-14T02:52:44.163Z,4.68
2024-03-14T02:55:14.614Z,5.95
2024-03-14T02:57:45.632Z,5.90
2024-03-14T03:00:19.036Z,7.53
2024-03-14T03:02:49.913Z,4.68
2024-03-14T03:05:20.650Z,4.55
2024-03-14T03:07:55.545Z,4.65
2024-03-14T03:10:26.740Z,5.20
2024-03-14T03:12:57.224Z,5.32
2024-03-14T03:15:27.850Z,7.45
2024-03-14T03:17:58.374Z,5.07
2024-03-14T03:20:28.922Z,4.32
2024-03-14T03:23:11.055Z,4.22
2024-03-14T03:25:39.898Z,5.78
2024-03-14T03:28:12.422Z,5.70
2024-03-14T03:30:40.341Z,4.10
2024-03-14T03:33:13.820Z,6.60
2024-03-14T03:35:43.631Z,4.65
2024-03-14T03:38:17.377Z,6.85
2024-03-14T03:40:45.262Z,4.00
2024-03-14T03:43:16.012Z,4.07
2024-03-14T03:45:44.017Z,4.97
2024-03-14T03:48:14.481Z,3.42
2024-03-14T03:50:42.529Z,4.65
2024-03-14T03:53:12.956Z,3.22
2024-03-14T03:55:44.250Z,6.07
2024-03-14T03:58:14.887Z,5.43
2024-03-14T04:00:45.771Z,6.90
2024-03-14T04:03:16.598Z,5.18
2024-03-14T04:05:44.759Z,5.05
2024-03-14T04:08:16.139Z,5.85
2024-03-14T04:10:49.724Z,5.00
2024-03-14T04:13:20.260Z,4.47
2024-03-14T04:15:48.260Z,4.10
2024-03-14T04:18:18.840Z,6.05
2024-03-14T04:20:49.395Z,3.72
2024-03-14T04:23:21.268Z,4.30
2024-03-14T04:25:54.945Z,4.43
2024-03-14T04:28:25.834Z,3.30
2024-03-14T04:30:56.471Z,5.38
2024-03-14T04:33:27.241Z,4.50
2024-03-14T04:35:58.451Z,4.32
2024-03-14T04:38:28.926Z,3.53
2024-03-14T04:41:02.031Z,4.60
2024-03-14T04:43:32.691Z,5.07
2024-03-14T04:46:03.142Z,5.78
2024-03-14T04:48:34.175Z,3.90
2024-03-14T04:51:05.718Z,6.07
2024-03-14T04:53:36.459Z,4.03
2024-03-14T04:56:10.223Z,4.95
2024-03-14T04:58:41.298Z,5.20
2024-03-14T05:01:11.986Z,5.05
2024-03-14T05:03:43.292Z,4.25
2024-03-14T05:06:14.624Z,2.90
2024-03-14T05:08:45.437Z,4.05
2024-03-14T05:11:19.000Z,5.70
2024-03-14T05:13:52.159Z,6.85
2024-03-14T05:16:24.012Z,3.38
2024-03-14T05:18:54.594Z,4.82
2024-03-14T05:21:26.394Z,4.10
2024-03-14T05:23:57.061Z,3.88
2024-03-14T05:26:31.176Z,3.88
2024-03-14T05:29:01.621Z,4.05
2024-03-14T05:31:32.160Z,4.18
2024-03-14T05:34:02.614Z,3.58
2024-03-14T05:36:33.407Z,3.05
2024-03-14T05:39:05.649Z,4.32
2024-03-14T05:41:39.690Z,3.92
2024-03-14T05:44:10.129Z,4.05
2024-03-14T05:46:40.620Z,5.40
2024-03-14T05:49:11.222Z,3.97
2024-03-14T05:51:41.790Z,4.28
2024-03-14T05:54:12.329Z,4.00
2024-03-14T05:56:45.452Z,3.95
2024-03-14T05:59:17.105Z,4.72
2024-03-14T06:01:47.929Z,4.55
2024-03-14T06:04:18.467Z,3.20
2024-03-14T06:06:48.992Z,4.20
2024-03-14T06:09:33.145Z,5.38
2024-03-14T06:12:06.983Z,3.80
2024-03-14T06:14:37.583Z,4.07
2024-03-14T06:17:08.389Z,4.72
2024-03-14T06:19:38.849Z,3.55
2024-03-14T06:22:10.861Z,3.65
2024-03-14T06:24:41.388Z,3.58
2024-03-14T06:27:15.661Z,5.18
2024-03-14T06:29:47.300Z,5.82
2024-03-14T06:32:17.799Z,7.40
2024-03-14T06:34:48.501Z,3.95
2024-03-14T06:37:19.354Z,4.53
2024-03-14T06:39:50.354Z,6.50
2024-03-14T06:42:24.634Z,4.57
2024-03-14T06:44:55.785Z,7.30
2024-03-14T06:47:27.558Z,5.45
2024-03-14T06:49:58.673Z,7.28
2024-03-14T06:52:29.134Z,3.97
2024-03-14T06:54:59.732Z,4.85
2024-03-14T06:57:33.431Z,8.23
2024-03-14T07:00:13.379Z,7.53
2024-03-14T07:02:45.715Z,8.40
2024-03-14T07:05:18.227Z,5.53
2024-03-14T07:07:49.200Z,4.45
2024-03-14T07:10:20.715Z,7.03
2024-03-14T07:12:53.896Z,4.22
2024-03-14T07:15:24.544Z,6.72
2024-03-14T07:18:00.343Z,5.82
2024-03-14T07:20:35.137Z,4.93
2024-03-14T07:23:06.424Z,6.78
2024-03-14T07:25:36.987Z,5.93
2024-03-14T07:28:11.229Z,10.10
2024-03-14T07:30:42.762Z,6.65
2024-03-14T07:33:13.382Z,4.50
2024-03-14T07:35:46.497Z,5.20
2024-03-14T07:38:17.044Z,7.40
2024-03-14T07:40:47.709Z,7.68
2024-03-14T07:43:21.475Z,4.80
2024-03-14T07:45:52.121Z,5.70
2024-03-14T07:48:23.386Z,6.55
2024-03-14T07:50:54.466Z,7.22
2024-03-14T07:53:27.248Z,7.35
2024-03-14T07:55:57.708Z,6.65
2024-03-14T07:58:30.771Z,5.60
2024-03-14T08:01:02.086Z,5.00
2024-03-14T08:03:32.614Z,6.55
2024-03-14T08:06:03.803Z,5.82
2024-03-14T08:08:34.498Z,5.10
2024-03-14T08:11:04.990Z,7.35
2024-03-14T08:13:38.441Z,6.65
2024-03-14T08:16:16.065Z,7.72
2024-03-14T08:18:48.296Z,7.32
2024-03-14T08:21:20.021Z,6.80
2024-03-14T08:23:51.341Z,8.25
2024-03-14T08:26:22.577Z,4.40
2024-03-14T08:28:57.763Z,8.30
2024-03-14T08:31:29.729Z,3.72
2024-03-14T08:34:00.506Z,4.30
2024-03-14T08:36:31.640Z,6.30
2024-03-14T08:39:02.467Z,6.60
2024-03-14T08:41:33.523Z,4.10
2024-03-14T08:44:06.901Z,4.72
2024-03-14T08:46:37.580Z,4.57
2024-03-14T08:49:08.410Z,6.45
2024-03-14T08:51:39.870Z,5.60
2024-03-14T08:54:29.947Z,5.15
2024-03-14T08:57:05.288Z,6.28
2024-03-14T08:59:41.067Z,7.90
2024-03-14T09:02:13.278Z,5.05
2024-03-14T09:04:47.793Z,4.13
2024-03-14T09:07:18.936Z,3.85
2024-03-14T09:09:49.825Z,9.23
2024-03-14T09:12:26.212Z,4.93
2024-03-14T09:15:00.053Z,8.68
2024-03-14T09:17:30.848Z,9.13
2024-03-14T09:20:01.356Z,5.13
2024-03-14T09:22:32.494Z,5.25
2024-03-14T09:25:03.218Z,4.03
2024-03-14T09:27:35.376Z,3.78
2024-03-14T09:30:10.782Z,4.57
2024-03-14T09:32:41.949Z,4.45
2024-03-14T09:35:13.949Z,4.32
2024-03-14T09:37:44.698Z,9.40
2024-03-14T09:40:16.570Z,6.00
2024-03-14T09:42:49.012Z,4.10
2024-03-14T09:45:24.989Z,5.45
2024-03-14T09:47:58.313Z,6.85
2024-03-14T09:50:29.640Z,5.22
2024-03-14T09:53:00.201Z,5.40
2024-03-14T09:55:32.330Z,4.40
2024-03-14T09:58:02.884Z,5.55
2024-03-14T10:00:36.062Z,5.75
2024-03-14T10:03:07.476Z,4.90
2024-03-14T10:05:40.202Z,4.75
2024-03-14T10:08:12.766Z,4.68
2024-03-14T10:10:43.372Z,4.05
2024-03-14T10:13:14.560Z,8.63
2024-03-14T10:15:51.214Z,7.28
2024-03-14T10:18:24.294Z,4.60
2024-03-14T10:20:55.332Z,5.00
2024-03-14T10:23:26.959Z,5.15
2024-03-14T10:25:57.392Z,4.05
2024-03-14T10:28:30.127Z,4.03
2024-03-14T10:31:07.349Z,3.05
2024-03-14T10:33:39.652Z,3.40
2024-03-14T10:36:15.079Z,4.22
2024-03-14T10:38:46.083Z,5.18
2024-03-14T10:41:19.265Z,4.85
2024-03-14T10:43:54.581Z,6.50
2024-03-14T10:46:28.233Z,3.67
2024-03-14T10:48:58.917Z,4.40
2024-03-14T10:51:30.759Z,4.70
2024-03-14T10:54:01.349Z,5.40
2024-03-14T10:56:31.974Z,3.65
2024-03-14T10:59:03.628Z,4.93
2024-03-14T11:01:37.685Z,4.20
2024-03-14T11:04:11.438Z,4.10
2024-03-14T11:06:44.739Z,5.05
2024-03-14T11:09:18.507Z,4.85
2024-03-14T11:11:54.232Z,4.78
2024-03-14T11:14:28.725Z,7.25
2024-03-14T11:17:03.364Z,8.82
2024-03-14T11:19:35.065Z,4.85
2024-03-14T11:22:05.710Z,7.50
2024-03-14T11:24:37.068Z,4.75
2024-03-14T11:27:08.330Z,6.25
2024-03-14T11:29:40.547Z,5.80
2024-03-14T11:32:19.507Z,7.55
2024-03-14T11:34:51.113Z,5.65
2024-03-14T11:37:22.298Z,6.07
2024-03-14T11:39:53.045Z,5.15
2024-03-14T11:42:25.065Z,5.43
2024-03-14T11:44:56.361Z,4.95
2024-03-14T11:47:41.916Z,3.80
2024-03-14T11:50:24.058Z,4.43
2024-03-14T11:52:56.573Z,4.30
2024-03-14T11:55:30.717Z,5.82
2024-03-14T11:58:01.619Z,3.58
2024-03-14T12:00:33.674Z,6.63
2024-03-14T12:03:04.340Z,6.72
2024-03-14T12:05:43.042Z,9.35
2024-03-14T12:08:14.759Z,5.63
2024-03-14T12:10:48.155Z,8.05
2024-03-14T12:13:22.922Z,5.60
2024-03-14T12:16:04.387Z,4.93
2024-03-14T12:18:37.112Z,6.95
2024-03-14T12:21:16.194Z,3.70
2024-03-14T12:23:56.765Z,4.35
2024-03-14T12:26:28.315Z,7.93
2024-03-14T12:29:00.902Z,8.43
2024-03-14T12:31:31.924Z,8.07
2024-03-14T12:34:06.089Z,8.15
2024-03-14T12:36:40.656Z,4.57
2024-03-14T12:39:14.367Z,7.70
2024-03-14T12:41:44.863Z,4.47
2024-03-14T12:44:15.653Z,2.90
2024-03-14T12:46:48.699Z,2.00
2024-03-14T12:49:19.249Z,0.80
2024-03-14T12:51:59.637Z,2.83
2024-03-14T12:54:38.020Z,3.08
2024-03-14T12:57:08.870Z,1.77
2024-03-14T12:59:42.191Z,2.78
2024-03-14T13:02:12.586Z,1.52
2024-03-14T13:04:43.575Z,2.30
2024-03-14T13:07:21.156Z,0.95
2024-03-14T13:10:11.404Z,1.08
2024-03-14T13:12:42.859Z,1.48
2024-03-14T13:15:16.472Z,1.25
2024-03-14T13:17:55.929Z,1.45
2024-03-14T13:20:27.429Z,2.13
2024-03-14T13:23:01.044Z,0.60
2024-03-14T13:25:32.172Z,1.13
2024-03-14T13:28:04.623Z,1.85
2024-03-14T13:30:34.983Z,1.17
2024-03-14T13:33:11.288Z,0.95
2024-03-14T13:35:42.622Z,1.13
2024-03-14T13:38:17.680Z,0.80
2024-03-14T13:40:48.952Z,0.65
2024-03-14T13:43:24.665Z,3.05
2024-03-14T13:45:55.600Z,0.98
2024-03-14T13:48:27.973Z,0.70
2024-03-14T13:50:58.276Z,0.75
2024-03-14T13:53:33.318Z,0.50
2024-03-14T13:56:04.948Z,0.65
2024-03-14T13:58:38.000Z,2.85
2024-03-14T14:01:21.260Z,1.60
2024-03-14T14:03:55.147Z,0.95
2024-03-14T14:06:26.524Z,1.13
2024-03-14T14:09:00.308Z,0.93
2024-03-14T14:11:31.524Z,1.63
2024-03-14T14:14:02.479Z,1.33
2024-03-14T14:16:33.336Z,2.10
2024-03-14T14:19:03.739Z,0.80
2024-03-14T14:21:35.463Z,0.93
2024-03-14T14:24:09.059Z,1.33
2024-03-14T14:26:40.160Z,1.20
2024-03-14T14:29:11.761Z,1.00
2024-03-14T14:31:43.295Z,1.75
2024-03-14T14:34:15.758Z,2.10
2024-03-14T14:36:46.007Z,1.15
2024-03-14T14:39:20.673Z,0.73
2024-03-14T14:41:50.890Z,0.60
2024-03-14T14:44:21.097Z,0.68
2024-03-14T14:46:52.760Z,1.52
2024-03-14T14:49:23.654Z,1.00
2024-03-14T14:51:54.671Z,0.70
2024-03-14T14:54:28.178Z,0.70
2024-03-14T14:56:58.494Z,0.70
2024-03-14T14:59:32.524Z,1.83
2024-03-14T15:02:06.445Z,0.98
2024-03-14T15:04:37.546Z,1.48
2024-03-14T15:07:07.897Z,1.35
2024-03-14T15:09:41.276Z,0.77
2024-03-14T15:12:11.865Z,0.75
2024-03-14T15:14:43.254Z,0.75
2024-03-14T15:17:17.989Z,0.63
2024-03-14T15:19:49.248Z,0.95
2024-03-14T15:22:20.093Z,0.70
2024-03-14T15:24:53.304Z,1.77
2024-03-14T15:27:24.368Z,1.02
2024-03-14T15:29:58.436Z,1.70
2024-03-14T15:32:30.095Z,2.28
2024-03-14T15:35:01.264Z,1.10
2024-03-14T15:37:33.803Z,1.00
2024-03-14T15:40:09.303Z,1.85
2024-03-14T15:42:40.227Z,2.47
2024-03-14T15:45:18.561Z,1.05
2024-03-14T15:47:50.219Z,1.50
2024-03-14T15:50:23.441Z,1.25
2024-03-14T15:52:53.999Z,2.83
2024-03-14T15:55:26.863Z,3.08
2024-03-14T15:57:57.082Z,8.57
2024-03-14T16:00:31.477Z,11.45
2024-03-14T16:03:03.172Z,16.05
2024-03-14T16:05:33.821Z,8.50
2024-03-14T16:08:04.267Z,12.23
2024-03-14T16:10:37.466Z,12.95
2024-03-14T16:13:08.676Z,13.70
2024-03-14T16:15:39.102Z,12.23
2024-03-14T16:18:10.276Z,13.60
2024-03-14T16:20:47.857Z,12.15
2024-03-14T16:23:20.381Z,7.82
2024-03-14T16:25:54.021Z,8.77
2024-03-14T16:28:25.338Z,1.98
2024-03-14T16:30:55.614Z,3.42
2024-03-14T16:33:26.025Z,3.30
2024-03-14T16:35:56.507Z,5.95
2024-03-14T16:38:26.758Z,3.58
2024-03-14T16:41:02.929Z,2.05
2024-03-14T16:43:33.212Z,1.55
2024-03-14T16:46:04.666Z,5.75
2024-03-14T16:48:36.960Z,2.38
2024-03-14T16:51:07.894Z,4.53
2024-03-14T16:53:39.194Z,2.85
2024-03-14T16:56:14.658Z,1.60
2024-03-14T16:58:45.008Z,8.52
2024-03-14T17:01:17.080Z,7.65
2024-03-14T17:03:48.998Z,12.05
2024-03-14T17:06:20.268Z,9.38
2024-03-14T17:08:51.416Z,11.38
2024-03-14T17:11:25.424Z,14.60
2024-03-14T17:13:57.171Z,12.40
2024-03-14T17:16:27.587Z,10.10
2024-03-14T17:18:57.979Z,6.45
2024-03-14T17:21:28.303Z,9.82
2024-03-14T17:23:58.803Z,9.75
2024-03-14T17:26:31.727Z,12.73
2024-03-14T17:29:02.784Z,7.18
2024-03-14T17:31:33.107Z,12.25
2024-03-14T17:34:03.500Z,3.33
2024-03-14T17:36:33.715Z,6.00
2024-03-14T17:39:05.463Z,5.38
2024-03-14T17:41:40.222Z,3.42
2024-03-14T17:44:10.387Z,1.92
2024-03-14T17:46:41.309Z,5.88
2024-03-14T17:49:11.803Z,4.57
2024-03-14T17:51:45.848Z,3.72
2024-03-14T17:54:18.994Z,5.10
2024-03-14T17:56:55.820Z,7.93
2024-03-14T17:59:29.558Z,4.32
2024-03-14T18:02:01.067Z,4.57
2024-03-14T18:04:32.891Z,7.28
2024-03-14T18:07:03.874Z,9.13
2024-03-14T18:09:34.337Z,5.68
2024-03-14T18:12:08.023Z,8.35
2024-03-14T18:14:40.432Z,7.75
2024-03-14T18:17:12.323Z,5.93
2024-03-14T18:19:42.606Z,3.55
2024-03-14T18:22:12.993Z,6.47
2024-03-14T18:24:43.200Z,3.97
2024-03-14T18:27:16.707Z,4.13
2024-03-14T18:29:46.905Z,5.60
2024-03-14T18:32:17.158Z,5.47
2024-03-14T18:34:47.447Z,3.50
2024-03-14T18:37:20.350Z,4.47
2024-03-14T18:39:50.718Z,4.10
2024-03-14T18:42:24.238Z,3.55
2024-03-14T18:44:58.788Z,5.72
2024-03-14T18:47:29.466Z,6.95
2024-03-14T18:49:59.751Z,2.70
2024-03-14T18:52:30.512Z,4.65
2024-03-14T18:55:02.970Z,4.53
2024-03-14T18:57:35.968Z,4.65
2024-03-14T19:00:08.646Z,7.72
2024-03-14T19:02:39.149Z,5.80
2024-03-14T19:05:10.192Z,3.17
2024-03-14T19:07:41.392Z,8.30
2024-03-14T19:10:11.891Z,7.80
2024-03-14T19:12:47.008Z,7.28
2024-03-14T19:15:26.613Z,6.52
2024-03-14T19:17:57.093Z,6.38
2024-03-14T19:20:27.311Z,6.85
2024-03-14T19:22:58.019Z,5.07
2024-03-14T19:25:28.283Z,4.63
2024-03-14T19:28:01.199Z,9.00
2024-03-14T19:30:31.471Z,7.72
2024-03-14T19:33:01.716Z,5.75
2024-03-14T19:35:33.364Z,5.85
2024-03-14T19:38:03.626Z,9.27
2024-03-14T19:40:34.879Z,7.88
2024-03-14T19:43:07.938Z,6.45
2024-03-14T19:45:39.490Z,5.63
2024-03-14T19:48:10.646Z,7.25
2024-03-14T19:50:40.913Z,5.75
2024-03-14T19:53:11.515Z,7.15
2024-03-14T19:55:42.873Z,9.90
2024-03-14T19:58:18.142Z,9.43
2024-03-14T20:00:50.015Z,7.60
2024-03-14T20:03:20.286Z,6.18
2024-03-14T20:05:50.404Z,10.25
2024-03-14T20:08:21.029Z,10.40
2024-03-14T20:10:51.283Z,10.23
2024-03-14T20:13:24.068Z,8.48
2024-03-14T20:15:54.442Z,8.35
2024-03-14T20:18:26.264Z,10.38
2024-03-14T20:20:57.925Z,13.90
2024-03-14T20:23:31.113Z,8.82
2024-03-14T20:26:01.900Z,8.70
2024-03-14T20:28:34.629Z,7.95
2024-03-14T20:31:05.052Z,9.05
2024-03-14T20:33:36.060Z,7.30
2024-03-14T20:36:09.562Z,8.80
2024-03-14T20:38:40.242Z,8.60
2024-03-14T20:41:22.721Z,10.52
2024-03-14T20:43:56.550Z,8.20
2024-03-14T20:46:26.733Z,9.15
2024-03-14T20:48:57.621Z,5.95
2024-03-14T20:51:29.442Z,8.45
2024-03-14T20:54:02.470Z,6.70
2024-03-14T20:56:42.799Z,8.35
2024-03-14T20:59:18.422Z,9.70
2024-03-14T21:01:48.715Z,7.43
2024-03-14T21:04:19.184Z,5.43
2024-03-14T21:06:49.531Z,8.27
2024-03-14T21:09:26.120Z,5.18
2024-03-14T21:11:57.404Z,7.68
2024-03-14T21:14:30.465Z,9.00
2024-03-14T21:17:00.685Z,4.82
2024-03-14T21:19:31.076Z,6.25
2024-03-14T21:22:02.602Z,3.50
2024-03-14T21:24:33.369Z,6.15
2024-03-14T21:27:03.665Z,6.20
2024-03-14T21:29:36.721Z,10.73
2024-03-14T21:32:07.558Z,8.77
2024-03-14T21:34:39.714Z,8.77
2024-03-14T21:37:10.815Z,10.65
2024-03-14T21:39:47.948Z,8.73
2024-03-14T21:42:18.318Z,7.85
2024-03-14T21:44:52.886Z,11.07
2024-03-14T21:47:23.575Z,8.27
2024-03-14T21:49:53.855Z,7.72
2024-03-14T21:52:24.086Z,7.18
2024-03-14T21:54:55.113Z,7.20
2024-03-14T21:57:27.053Z,6.07
2024-03-14T21:59:59.975Z,5.93
2024-03-14T22:02:30.237Z,8.02
2024-03-14T22:05:01.150Z,11.05
2024-03-14T22:07:34.873Z,8.15
2024-03-14T22:10:05.210Z,6.53
2024-03-14T22:12:36.119Z,6.15
2024-03-14T22:15:12.629Z,9.40
2024-03-14T22:17:44.885Z,5.70
2024-03-14T22:20:21.165Z,8.02
2024-03-14T22:22:52.473Z,7.20
2024-03-14T22:25:22.622Z,7.32
2024-03-14T22:27:52.853Z,5.10
2024-03-14T22:30:26.340Z,7.35
2024-03-14T22:32:56.663Z,4.15
2024-03-14T22:35:27.237Z,9.02
2024-03-14T22:37:57.469Z,7.78
2024-03-14T22:40:27.713Z,6.88
2024-03-14T22:42:57.959Z,6.43
2024-03-14T22:45:31.631Z,7.43
2024-03-14T22:48:02.037Z,6.00
2024-03-14T22:50:33.994Z,6.63
2024-03-14T22:53:04.346Z,5.95
2024-03-14T22:55:34.800Z,6.60
2024-03-14T22:58:05.104Z,8.45
2024-03-14T23:00:48.109Z,6.40
2024-03-14T23:03:21.468Z,6.72
2024-03-14T23:05:51.743Z,4.20
2024-03-14T23:08:21.899Z,6.50
2024-03-14T23:10:52.866Z,6.88
2024-03-14T23:13:23.794Z,4.90
2024-03-14T23:15:56.960Z,7.78
2024-03-14T23:18:27.321Z,10.25
2024-03-14T23:21:00.000Z,8.52
2024-03-14T23:23:30.243Z,4.75
2024-03-14T23:26:00.548Z,6.85
2024-03-14T23:28:31.276Z,3.40
2024-03-14T23:31:04.150Z,7.55
2024-03-14T23:33:35.044Z,5.95
2024-03-14T23:36:05.377Z,7.97
2024-03-14T23:38:36.465Z,3.75
2024-03-14T23:41:07.006Z,4.35
2024-03-14T23:43:38.251Z,4.38
2024-03-14T23:46:11.070Z,5.82
2024-03-14T23:48:41.394Z,6.05
2024-03-14T23:51:11.804Z,6.47
2024-03-14T23:53:43.450Z,5.43
2024-03-14T23:56:13.780Z,5.60
2024-03-14T23:58:44.810Z,5.65
